CW7804 Weather Reports


Display with metric or nautical units.
time (UTC)temp
F
wind
direction
speed
MPH
gust
MPH
rain 1hr
in
rain 24hr
in
rain mn
in
humidity
%
barometer
mb
20180426223748 61 315 3.0 4.0 0.00 0.00 0.00 92 1010.8
20180426222747 62 315 3.0 4.0 0.00 0.00 0.00 90 1010.8
20180426221746 63 315 2.0 3.0 0.00 0.00 0.00 88 1010.8
20180426220745 63 1 2.0 4.0 0.00 0.00 0.00 89 1010.8
20180426215712 64 22 2.0 4.0 0.00 0.00 0.00 89 1010.2
20180426214712 64 22 3.0 5.0 0.00 0.00 0.00 88 1010.2
20180426213710 65 157 0.0 2.0 0.00 0.00 0.00 87 1010.2
20180426212637 65 157 0.0 3.0 0.00 0.00 0.00 85 1010.2
20180426211636 65 157 2.0 5.0 0.00 0.00 0.00 85 1010.2
20180426210636 65 112 0.0 6.0 0.00 0.00 0.00 79 1010.2
20180426205635 66 90 0.0 0.0 0.00 0.00 0.00 73 1010.2
20180426204634 67 0 2.0 6.0 0.00 0.00 0.00 70 1010.2
20180426203528 68 112 0.0 2.0 0.00 0.00 0.00 65 1010.2
20180426202455 69 112 0.0 3.0 0.00 0.00 0.00 62 1010.2
20180426201454 70 95 5.0 8.0 0.00 0.00 0.00 59 1010.2
20180426200421 70 44 6.0 6.0 0.00 0.00 0.00 58 1010.2
20180426195243 71 79 5.0 7.0 0.00 0.00 0.00 56 1010.2
20180426194242 71 47 4.0 8.0 0.00 0.00 0.00 55 1010.8
20180426193241 72 67 5.0 8.0 0.00 0.00 0.00 53 1010.8
20180426192208 72 18 7.0 9.0 0.00 0.00 0.00 53 1010.8
20180426191102 73 45 6.0 8.0 0.00 0.00 0.00 53 1010.8
20180426190101 72 68 6.0 11.0 0.00 0.00 0.00 53 1010.8
20180426185100 71 58 5.0 6.0 0.00 0.00 0.00 54 1010.8
20180426184100 71 25 6.0 8.0 0.00 0.00 0.00 54 1010.8
20180426183027 70 29 7.0 10.0 0.00 0.00 0.00 55 1011.9
20180426181816 69 30 7.0 9.0 0.00 0.00 0.00 61 1010.2
20180426180815 68 60 4.0 8.0 0.00 0.00 0.00 61 1010.2
20180426175814 67 14 4.0 9.0 0.00 0.00 0.00 62 1010.8
20180426174813 67 36 5.0 11.0 0.00 0.00 0.00 62 1010.8
20180426173812 66 14 5.0 9.0 0.00 0.00 0.00 61 1010.8
20180426172739 67 7 3.0 7.0 0.00 0.00 0.00 59 1010.8
20180426171529 67 27 6.0 8.0 0.00 0.00 0.00 57 1011.9
20180426170528 68 11 4.0 8.0 0.00 0.00 0.00 55 1011.9
20180426165349 68 12 4.0 9.0 0.00 0.00 0.00 53 1011.9
20180426164348 69 20 5.0 8.0 0.00 0.00 0.00 53 1011.9
20180426163315 70 0 2.0 9.0 0.00 0.00 0.00 51 1011.9
20180426162314 71 67 2.0 6.0 0.00 0.00 0.00 49 1011.9
20180426161313 71 63 6.0 9.0 0.00 0.00 0.00 48 1011.9
20180426160312 74 37 6.0 11.0 0.00 0.00 0.00 46 1011.9
20180426155311 74 70 6.0 9.0 0.00 0.00 0.00 48 1011.9
20180426154311 72 68 6.0 10.0 0.00 0.00 0.00 51 1012.9
20180426153310 68 46 7.0 11.0 0.00 0.00 0.00 56 1012.9
20180426152132 66 29 5.0 8.0 0.00 0.00 0.00 60 1012.9
20180426151058 65 24 7.0 11.0 0.00 0.00 0.00 58 1012.9
20180426150057 65 70 3.0 5.0 0.00 0.00 0.00 60 1011.9
20180426145056 65 72 5.0 11.0 0.00 0.00 0.00 59 1011.9
20180426143918 65 28 3.0 8.0 0.00 0.00 0.00 60 1011.9
20180426142917 64 0 4.0 8.0 0.00 0.00 0.00 62 1011.9
20180426141917 64 25 6.0 7.0 0.00 0.00 0.00 60 1011.9
20180426140916 64 22 6.0 8.0 0.00 0.00 0.00 62 1011.9
20180426135915 64 45 4.0 6.0 0.00 0.00 0.00 62 1011.9
20180426134914 62 22 3.0 11.0 0.00 0.04 0.00 62 1011.9
20180426133841 62 22 10.0 19.0 0.00 0.04 0.00 61 1011.9
20180426132702 62 8 8.0 11.0 0.00 0.04 0.00 63 1011.9
20180426131702 61 22 11.0 12.0 0.00 0.04 0.00 67 1011.9
20180426130523 61 62 7.0 10.0 0.00 0.04 0.00 69 1011.9
20180426125522 60 28 10.0 15.0 0.00 0.04 0.00 71 1011.9
20180426124449 60 65 9.0 9.0 0.00 0.37 0.00 74 1011.9
20180426123415 59 15 9.0 15.0 0.00 0.37 0.00 77 1011.9
20180426122310 58 32 5.0 8.0 0.00 0.37 0.00 84 1011.9
20180426121204 57 38 3.0 8.0 0.00 0.37 0.00 92 1011.9
20180426120131 56 35 5.0 7.0 0.00 0.37 0.00 95 1011.9
20180426115057 55 44 5.0 8.0 0.00 0.62 0.00 96 1011.9
20180426113952 54 67 3.0 6.0 0.00 0.62 0.00 98 1011.9
20180426112950 53 22 3.0 5.0 0.00 0.62 0.00 98 1010.8
20180426111950 53 22 0.0 0.0 0.00 0.62 0.00 98 1010.8
20180426110917 53 22 0.0 0.0 0.00 0.62 0.00 98 1010.8
20180426105844 53 22 0.0 0.0 0.00 0.62 0.00 98 1010.2
20180426104843 53 22 0.0 0.0 0.00 0.67 0.00 97 1010.8
20180426103738 53 22 0.0 0.0 0.00 0.67 0.00 97 1010.8
20180426102705 54 22 0.0 0.0 0.00 0.67 0.00 97 1010.8
20180426101704 54 22 2.0 3.0 0.00 0.67 0.00 97 1010.8
20180426100631 54 22 2.0 3.0 0.00 0.67 0.00 97 1010.8
20180426095423 54 22 0.0 0.0 0.00 0.67 0.00 96 1010.8
20180426094350 54 22 0.0 0.0 0.00 0.67 0.00 97 1010.8
20180426093349 54 22 0.0 0.0 0.00 0.67 0.00 96 1010.8
20180426092348 55 22 0.0 0.0 0.00 0.67 0.00 97 1010.8
20180426091348 55 22 0.0 2.0 0.00 0.67 0.00 95 1010.8
20180426090347 54 22 0.0 0.0 0.00 0.67 0.00 95 1010.8
20180426085242 55 22 0.0 0.0 0.00 0.67 0.00 95 1010.8
20180426084240 55 22 0.0 0.0 0.00 0.75 0.00 95 1011.9
20180426083207 55 22 0.0 4.0 0.00 0.75 0.00 95 1011.9
20180426082135 55 67 4.0 4.0 0.00 0.75 0.00 96 1010.8
20180426081029 55 0 2.0 5.0 0.00 0.75 0.00 97 1010.8
20180426080029 54 31 3.0 9.0 0.00 0.75 0.00 98 1010.8
20180426075028 54 11 5.0 7.0 0.00 0.75 0.00 98 1010.8
20180426074027 53 15 4.0 6.0 0.00 0.75 0.00 98 1010.8
20180426073026 52 45 3.0 4.0 0.00 0.75 0.00 98 1010.8
20180426071848 51 45 0.0 0.0 0.00 0.75 0.00 98 1010.8
20180426070847 51 45 0.0 0.0 0.00 0.75 0.00 98 1010.8
20180426065846 51 45 0.0 0.0 0.00 0.75 0.00 98 1010.8
20180426064814 52 45 0.0 0.0 0.00 0.79 0.00 96 1010.8
20180426063813 53 45 0.0 0.0 0.00 0.79 0.00 96 1010.8
20180426062740 53 45 0.0 0.0 0.00 0.79 0.00 95 1010.8
20180426061530 53 45 0.0 4.0 0.00 0.79 0.00 95 1010.8
20180426060456 53 39 4.0 4.0 0.00 0.79 0.00 94 1010.8
20180426055455 54 157 0.0 0.0 0.00 0.79 0.00 94 1010.8
20180426054349 54 157 0.0 0.0 0.00 0.79 0.00 94 1010.8
20180426053349 55 157 0.0 0.0 0.00 0.79 0.00 94 1010.8
20180426052348 54 157 0.0 0.0 0.00 0.79 0.00 94 1010.8
20180426051347 54 157 0.0 0.0 0.00 0.79 0.00 94 1010.8
20180426050346 54 157 0.0 0.0 0.00 0.79 0.00 94 1010.8
20180426045346 53 157 0.0 0.0 0.00 0.79 0.00 94 1010.8
20180426044240 54 157 0.0 0.0 0.00 0.79 0.00 94 1010.8
20180426043134 53 157 0.0 0.0 0.00 0.79 0.00 94 1010.8
20180426042133 54 157 0.0 0.0 0.00 0.79 0.00 92 1010.8
20180426041132 54 157 0.0 0.0 0.00 0.79 0.00 90 1010.8
20180426040132 55 157 0.0 0.0 0.00 0.79 0.00 88 1010.8
20180426035131 56 337 0.0 0.0 0.00 0.79 0.79 86 1010.2
20180426034057 57 337 0.0 0.0 0.00 0.79 0.79 84 1010.2
20180426033056 57 337 0.0 0.0 0.00 0.79 0.79 84 1010.2
20180426032056 57 337 0.0 0.0 0.00 0.79 0.79 83 1010.2
20180426031023 58 0 0.0 0.0 0.00 0.79 0.79 82 1010.2
20180426025740 58 0 0.0 0.0 0.00 0.79 0.79 83 1010.8
20180426024739 58 0 0.0 0.0 0.00 0.79 0.79 82 1010.8
20180426023601 58 0 0.0 2.0 0.00 0.79 0.79 81 1010.8
20180426022527 59 0 0.0 4.0 0.00 0.79 0.79 81 1010.8
20180426021527 59 67 2.0 3.0 0.00 0.79 0.79 81 1010.8
20180426020211 59 67 0.0 2.0 0.00 0.79 0.79 82 1010.8
20180426015137 58 90 0.0 0.0 0.00 0.91 0.79 82 1010.8
20180426013959 58 90 0.0 0.0 0.00 0.91 0.79 82 1010.8
20180426012957 57 90 0.0 0.0 0.00 0.91 0.79 83 1010.2
20180426011956 58 90 0.0 0.0 0.00 0.91 0.79 81 1010.2
20180426010955 58 90 0.0 0.0 0.00 0.91 0.79 81 1010.2
20180426005954 59 90 0.0 0.0 0.00 0.91 0.79 76 1009.1
20180426004816 60 90 0.0 0.0 0.00 0.96 0.79 73 1009.1
20180426003743 61 90 0.0 0.0 0.00 0.96 0.79 71 1009.1
20180426002742 62 90 0.0 0.0 0.00 0.96 0.79 69 1009.1
20180426001708 63 90 0.0 0.0 0.00 0.96 0.79 64 1009.1
20180426000707 64 90 0.0 0.0 0.00 0.96 0.79 62 1009.1
20180425235707 65 90 0.0 3.0 0.00 0.96 0.79 60 1009.1
20180425234706 66 67 0.0 4.0 0.00 1.33 0.79 58 1009.1
20180425233632 66 343 3.0 5.0 0.00 1.33 0.79 57 1009.1
20180425232632 67 315 3.0 5.0 0.00 1.33 0.79 56 1008.1
20180425231630 67 351 3.0 6.0 0.00 1.33 0.79 54 1008.1
20180425230420 68 344 3.0 13.0 0.00 1.33 0.79 52 1008.1
20180425225419 68 350 6.0 9.0 0.00 1.33 0.79 50 1008.1